Time;durP1;ratioP1;P1;durP2;ratioP2;P2;SDS_P1;SDS_P2;PMS_P1;PMS_P2;Temp;Humidity;BMP_temperature;BMP_pressure;BME280_temperature;BME280_humidity;BME280_pressure;Samples;Min_cycle;Max_cycle;Signal;HPM_P1;HPM_P2
2021/06/22 00:00:36;;;;;;;;;;;16.90;99.90;;;;;;8328105;28;19923;-65
2021/06/22 00:04:36;;;;;;;;;;;16.80;99.90;;;;;;8327918;28;19917;-64
2021/06/22 00:08:37;;;;;;;;;;;16.90;99.90;;;;;;8326334;28;19909;-65
2021/06/22 00:12:37;;;;;;;;;;;17.00;99.90;;;;;;8327803;28;19916;-65
2021/06/22 00:16:38;;;;;;;;;;;16.90;99.90;;;;;;8327358;28;19909;-66
2021/06/22 00:20:38;;;;;;;;;;;16.80;99.90;;;;;;8327499;28;19909;-64
2021/06/22 00:24:39;;;;;;;;;;;16.90;99.90;;;;;;8325955;28;19913;-65
2021/06/22 00:28:39;;;;;;;;;;;16.80;99.90;;;;;;8326991;28;20386;-64
2021/06/22 00:32:39;;;;;;;;;;;16.70;99.90;;;;;;8327537;28;20394;-65
2021/06/22 00:36:40;;;;;;;;;;;16.60;99.90;;;;;;8327107;28;19973;-66
2021/06/22 00:40:40;;;;;;;;;;;16.50;99.90;;;;;;8326922;28;19913;-65
2021/06/22 00:45:07;;;;;;;;;;;16.60;99.90;;;;;;8326698;28;19920;-64
2021/06/22 00:49:07;;;;;;;;;;;16.60;99.90;;;;;;8322969;28;20392;-65
2021/06/22 00:53:08;;;;;;;;;;;16.50;99.90;;;;;;8326073;28;20034;-64
2021/06/22 00:57:09;;;;;;;;;;;16.80;99.90;;;;;;8326209;28;20441;-65
2021/06/22 01:01:10;;;;;;;;;;;16.70;99.90;;;;;;8326289;28;20001;-65
2021/06/22 01:05:10;;;;;;;;;;;16.70;99.90;;;;;;8324609;28;19913;-64
2021/06/22 01:09:11;;;;;;;;;;;16.60;99.90;;;;;;8323862;28;19909;-65
2021/06/22 01:13:11;;;;;;;;;;;16.40;99.90;;;;;;8326254;28;19970;-65
2021/06/22 01:17:12;;;;;;;;;;;16.20;99.90;;;;;;8325669;28;19909;-64
2021/06/22 01:21:13;;;;;;;;;;;16.30;99.90;;;;;;8325855;28;19967;-64
2021/06/22 01:25:14;;;;;;;;;;;16.40;99.90;;;;;;8325764;28;19919;-65
2021/06/22 01:29:15;;;;;;;;;;;16.40;99.90;;;;;;8325492;28;19913;-65
2021/06/22 01:33:16;;;;;;;;;;;16.20;99.90;;;;;;8325785;28;19909;-64
2021/06/22 01:37:16;;;;;;;;;;;16.00;99.90;;;;;;8325190;28;19921;-64
2021/06/22 01:41:17;;;;;;;;;;;15.80;99.90;;;;;;8325642;28;19909;-65
2021/06/22 01:45:18;;;;;;;;;;;15.90;99.90;;;;;;8325475;28;19922;-65
2021/06/22 01:49:18;;;;;;;;;;;15.90;99.90;;;;;;8325378;28;20040;-65
2021/06/22 01:53:19;;;;;;;;;;;15.70;99.90;;;;;;8325103;28;19909;-64
2021/06/22 01:57:20;;;;;;;;;;;15.60;99.90;;;;;;8325034;28;19909;-65
2021/06/22 02:01:21;;;;;;;;;;;15.70;99.90;;;;;;8325228;28;19916;-65
2021/06/22 02:05:21;;;;;;;;;;;15.70;99.90;;;;;;8325143;28;20401;-63
2021/06/22 02:09:22;;;;;;;;;;;15.60;99.90;;;;;;8324870;28;19913;-64
2021/06/22 02:13:24;;;;;;;;;;;15.70;99.90;;;;;;8325226;28;19909;-65
2021/06/22 02:17:24;;;;;;;;;;;15.90;99.90;;;;;;8323998;28;19913;-63
2021/06/22 02:21:25;;;;;;;;;;;15.70;99.90;;;;;;8328748;28;20442;-65
2021/06/22 02:25:25;;;;;;;;;;;15.70;99.90;;;;;;8330964;28;20016;-65
2021/06/22 02:29:25;;;;;;;;;;;15.60;99.90;;;;;;8329676;28;20007;-65
2021/06/22 02:33:26;;;;;;;;;;;15.50;99.90;;;;;;8329725;28;20071;-64
2021/06/22 02:37:27;;;;;;;;;;;15.40;99.90;;;;;;8330482;28;19927;-65
2021/06/22 02:41:27;;;;;;;;;;;15.50;99.90;;;;;;8330692;28;19909;-65
2021/06/22 02:45:29;;;;;;;;;;;15.50;99.90;;;;;;8330214;28;20007;-63
2021/06/22 02:49:29;;;;;;;;;;;15.60;99.90;;;;;;8330689;28;19952;-65
2021/06/22 02:53:30;;;;;;;;;;;15.50;99.90;;;;;;8330204;28;19910;-64
2021/06/22 02:57:30;;;;;;;;;;;15.50;99.90;;;;;;8328928;28;19909;-64
2021/06/22 03:01:31;;;;;;;;;;;15.60;99.90;;;;;;8328867;28;19909;-64
2021/06/22 03:05:32;;;;;;;;;;;15.70;99.90;;;;;;8329967;28;19913;-64
2021/06/22 03:09:32;;;;;;;;;;;15.70;99.90;;;;;;8329751;28;19909;-65
2021/06/22 03:13:33;;;;;;;;;;;15.50;99.90;;;;;;8329680;28;19910;-64
2021/06/22 03:17:33;;;;;;;;;;;15.50;99.90;;;;;;8329518;28;19971;-64
2021/06/22 03:21:34;;;;;;;;;;;15.40;99.90;;;;;;8329434;28;19909;-65
2021/06/22 03:25:34;;;;;;;;;;;15.50;99.90;;;;;;8329164;28;19913;-64
2021/06/22 03:29:35;;;;;;;;;;;15.70;99.90;;;;;;8329247;28;20530;-65
2021/06/22 03:33:35;;;;;;;;;;;15.80;99.90;;;;;;8328908;28;19947;-65
2021/06/22 03:37:36;;;;;;;;;;;15.70;99.90;;;;;;8328220;28;20132;-64
2021/06/22 03:41:37;;;;;;;;;;;15.70;99.90;;;;;;8426860;22;19924;-63
2021/06/22 03:45:37;;;;;;;;;;;15.70;99.90;;;;;;8396475;28;19917;-62
2021/06/22 03:49:38;;;;;;;;;;;15.80;99.90;;;;;;8383333;28;19920;-62
2021/06/22 03:53:38;;;;;;;;;;;16.00;99.90;;;;;;8375117;28;20029;-62
2021/06/22 03:57:39;;;;;;;;;;;15.90;99.90;;;;;;8394199;28;19909;-63
2021/06/22 04:01:39;;;;;;;;;;;16.00;99.90;;;;;;8393915;28;19909;-63
2021/06/22 04:05:40;;;;;;;;;;;16.00;99.90;;;;;;8393266;28;20238;-62
2021/06/22 04:09:40;;;;;;;;;;;16.30;99.90;;;;;;8393023;28;19937;-62
2021/06/22 04:13:41;;;;;;;;;;;16.20;99.90;;;;;;8392632;28;19912;-62
2021/06/22 04:17:41;;;;;;;;;;;17.00;99.90;;;;;;8393523;28;19915;-62
2021/06/22 04:21:42;;;;;;;;;;;17.70;99.90;;;;;;8393073;28;19912;-62
2021/06/22 04:25:43;;;;;;;;;;;18.20;99.90;;;;;;8392745;28;20216;-63
2021/06/22 04:29:44;;;;;;;;;;;18.10;99.90;;;;;;8378523;28;20424;-63
2021/06/22 04:33:45;;;;;;;;;;;17.80;99.90;;;;;;8377203;28;19913;-74
2021/06/22 04:37:45;;;;;;;;;;;17.60;99.90;;;;;;8401429;28;19913;-74
2021/06/22 04:41:45;;;;;;;;;;;17.20;99.90;;;;;;8400139;28;19916;-74
2021/06/22 04:45:46;;;;;;;;;;;17.10;99.90;;;;;;8398955;28;20355;-73
2021/06/22 04:49:46;;;;;;;;;;;17.20;99.90;;;;;;8389959;28;19922;-65
2021/06/22 04:53:47;;;;;;;;;;;17.80;99.90;;;;;;8379492;28;19999;-64
2021/06/22 04:57:47;;;;;;;;;;;17.30;99.90;;;;;;8375079;28;20418;-66
2021/06/22 05:01:48;;;;;;;;;;;16.80;99.90;;;;;;8388480;28;20004;-66
2021/06/22 05:05:49;;;;;;;;;;;16.80;99.90;;;;;;8377109;28;19921;-64
2021/06/22 05:09:49;;;;;;;;;;;16.70;99.90;;;;;;8375040;28;20012;-66
2021/06/22 05:13:51;;;;;;;;;;;16.60;99.90;;;;;;8387071;28;19912;-65
2021/06/22 05:17:52;;;;;;;;;;;17.10;99.90;;;;;;8389820;28;19960;-65
2021/06/22 05:21:52;;;;;;;;;;;17.60;99.90;;;;;;8391765;28;19965;-66
2021/06/22 05:25:52;;;;;;;;;;;17.70;99.90;;;;;;8391394;28;20516;-64
2021/06/22 05:29:53;;;;;;;;;;;17.70;99.90;;;;;;8391596;28;19912;-66
2021/06/22 05:33:54;;;;;;;;;;;17.70;99.90;;;;;;8389745;28;19984;-66
2021/06/22 05:37:55;;;;;;;;;;;17.80;99.90;;;;;;8388472;28;20364;-65
2021/06/22 05:41:55;;;;;;;;;;;18.00;99.90;;;;;;8390788;28;19921;-66
2021/06/22 05:45:55;;;;;;;;;;;18.30;99.90;;;;;;8385724;28;19955;-65
2021/06/22 05:49:56;;;;;;;;;;;18.50;99.90;;;;;;8391531;28;19962;-66
2021/06/22 05:53:57;;;;;;;;;;;18.30;99.90;;;;;;8369863;28;19917;-66
2021/06/22 05:58:00;;;;;;;;;;;18.20;99.90;;;;;;8374168;28;19950;-66
2021/06/22 06:02:02;;;;;;;;;;;18.30;99.90;;;;;;8377269;28;19920;-66
2021/06/22 06:06:03;;;;;;;;;;;18.40;99.90;;;;;;8384468;28;19943;-67
2021/06/22 06:10:04;;;;;;;;;;;18.50;99.90;;;;;;8381772;28;19936;-67
2021/06/22 06:14:05;;;;;;;;;;;18.90;99.90;;;;;;8380607;28;19917;-68
2021/06/22 06:18:05;;;;;;;;;;;19.10;99.90;;;;;;8384338;28;19912;-67
2021/06/22 06:22:06;;;;;;;;;;;19.30;99.90;;;;;;8389277;28;20003;-67
2021/06/22 06:26:09;;;;;;;;;;;19.80;99.90;;;;;;8386025;28;20383;-67
2021/06/22 06:30:12;;;;;;;;;;;20.30;99.90;;;;;;8375253;28;19929;-73
2021/06/22 06:34:12;;;;;;;;;;;20.70;99.90;;;;;;8380740;28;19948;-68
2021/06/22 06:38:13;;;;;;;;;;;20.80;99.90;;;;;;8383116;28;19947;-68
2021/06/22 06:42:13;;;;;;;;;;;20.90;99.90;;;;;;8385466;28;19917;-68
2021/06/22 06:46:13;;;;;;;;;;;21.20;99.90;;;;;;8376774;28;19951;-68
2021/06/22 06:50:14;;;;;;;;;;;21.40;99.90;;;;;;8387355;28;20045;-68
2021/06/22 06:54:15;;;;;;;;;;;21.80;99.90;;;;;;8368429;28;19978;-68
2021/06/22 06:58:15;;;;;;;;;;;22.10;99.90;;;;;;8374336;28;19990;-67
2021/06/22 07:02:16;;;;;;;;;;;22.30;99.90;;;;;;8372608;28;19949;-68
2021/06/22 07:06:16;;;;;;;;;;;22.30;99.90;;;;;;8383591;28;20260;-68
2021/06/22 07:10:17;;;;;;;;;;;22.00;99.90;;;;;;8377528;28;19919;-69
2021/06/22 07:14:17;;;;;;;;;;;21.60;99.90;;;;;;8382852;28;19952;-68
2021/06/22 07:18:18;;;;;;;;;;;21.90;99.90;;;;;;8368647;28;19922;-67
2021/06/22 07:22:18;;;;;;;;;;;22.50;99.90;;;;;;8393965;28;19912;-67
2021/06/22 07:26:19;;;;;;;;;;;22.90;99.90;;;;;;8388809;28;19924;-69
2021/06/22 07:30:22;;;;;;;;;;;23.10;99.90;;;;;;8378309;28;20435;-68
2021/06/22 07:34:23;;;;;;;;;;;23.20;99.90;;;;;;8378598;28;19943;-68
2021/06/22 07:38:23;;;;;;;;;;;23.30;99.90;;;;;;8385588;28;20399;-69
2021/06/22 07:42:23;;;;;;;;;;;23.30;99.90;;;;;;8371226;28;20034;-69
2021/06/22 07:46:24;;;;;;;;;;;23.30;99.90;;;;;;8369300;28;19917;-66
2021/06/22 07:50:24;;;;;;;;;;;23.20;99.90;;;;;;8380675;28;19912;-67
2021/06/22 07:54:25;;;;;;;;;;;23.10;99.90;;;;;;8391762;28;19915;-68
2021/06/22 07:58:25;;;;;;;;;;;23.00;99.90;;;;;;8363819;28;19956;-66
2021/06/22 08:02:26;;;;;;;;;;;23.10;99.90;;;;;;8371734;28;19966;-67
2021/06/22 08:06:26;;;;;;;;;;;23.40;99.90;;;;;;8392081;28;19920;-67
2021/06/22 08:10:27;;;;;;;;;;;23.60;99.90;;;;;;8393866;28;20191;-66
2021/06/22 08:14:27;;;;;;;;;;;23.80;99.90;;;;;;8393274;28;19916;-66
2021/06/22 08:18:28;;;;;;;;;;;23.80;99.90;;;;;;8393626;28;19974;-67
2021/06/22 08:22:29;;;;;;;;;;;23.70;99.90;;;;;;8391327;28;19943;-67
2021/06/22 08:26:30;;;;;;;;;;;23.90;99.90;;;;;;8390535;28;19949;-66
2021/06/22 08:30:31;;;;;;;;;;;24.60;99.90;;;;;;8389881;28;19912;-66
2021/06/22 08:34:31;;;;;;;;;;;25.40;99.90;;;;;;8391583;28;20320;-66
2021/06/22 08:38:32;;;;;;;;;;;25.50;99.90;;;;;;8389567;28;20390;-70
2021/06/22 08:42:34;;;;;;;;;;;25.10;99.90;;;;;;8390977;28;19954;-70
2021/06/22 08:46:35;;;;;;;;;;;25.20;99.90;;;;;;8385437;28;19962;-70
2021/06/22 08:50:41;;;;;;;;;;;25.60;99.90;;;;;;8385205;28;19913;-72
2021/06/22 08:54:42;;;;;;;;;;;25.10;99.90;;;;;;8386332;28;19909;-69
2021/06/22 08:58:42;;;;;;;;;;;25.70;99.90;;;;;;8392059;28;19912;-70
2021/06/22 09:02:43;;;;;;;;;;;26.50;99.90;;;;;;8387017;28;19920;-70
2021/06/22 09:06:43;;;;;;;;;;;27.10;99.90;;;;;;8384110;28;19981;-69
2021/06/22 09:10:44;;;;;;;;;;;27.40;99.90;;;;;;8391062;28;19909;-73
2021/06/22 09:14:44;;;;;;;;;;;28.00;99.90;;;;;;8392137;28;19946;-71
2021/06/22 09:18:45;;;;;;;;;;;27.40;99.90;;;;;;8389693;28;19919;-70
2021/06/22 09:22:45;;;;;;;;;;;27.40;99.90;;;;;;8390721;28;19975;-66
2021/06/22 09:26:47;;;;;;;;;;;27.70;99.90;;;;;;8389951;28;20393;-67
2021/06/22 09:30:50;;;;;;;;;;;27.80;99.90;;;;;;8387229;28;19947;-67
2021/06/22 09:35:03;;;;;;;;;;;27.80;99.90;;;;;;8381392;28;20454;-72
2021/06/22 09:39:07;;;;;;;;;;;27.90;99.90;;;;;;8414173;22;19946;-66
2021/06/22 09:43:08;;;;;;;;;;;28.10;99.90;;;;;;8405811;28;19961;-67
2021/06/22 09:47:10;;;;;;;;;;;28.00;99.90;;;;;;8404201;28;19915;-66
2021/06/22 09:51:11;;;;;;;;;;;27.80;99.90;;;;;;8438073;28;20335;-66
2021/06/22 09:55:11;;;;;;;;;;;27.00;99.90;;;;;;8440459;28;19991;-66
2021/06/22 09:59:12;;;;;;;;;;;26.90;99.90;;;;;;8438499;28;19919;-67
2021/06/22 10:03:12;;;;;;;;;;;27.10;99.90;;;;;;8442462;28;20079;-66
2021/06/22 10:07:15;;;;;;;;;;;27.20;99.90;;;;;;8431208;28;19912;-66
2021/06/22 10:11:35;;;;;;;;;;;27.20;99.90;;;;;;8424787;28;20424;-66
2021/06/22 10:15:35;;;;;;;;;;;27.60;99.90;;;;;;8448640;28;19912;-66
2021/06/22 10:19:36;;;;;;;;;;;27.40;99.90;;;;;;8449862;28;19912;-66
2021/06/22 10:23:37;;;;;;;;;;;26.30;99.90;;;;;;8435936;28;19959;-66
2021/06/22 10:27:37;;;;;;;;;;;26.00;99.90;;;;;;8413612;28;20402;-66
2021/06/22 10:31:38;;;;;;;;;;;25.60;99.90;;;;;;8407704;28;19916;-67
2021/06/22 10:35:38;;;;;;;;;;;25.10;99.90;;;;;;8409590;28;19912;-66
2021/06/22 10:39:41;;;;;;;;;;;24.90;99.90;;;;;;8407049;28;19946;-66
2021/06/22 10:43:43;;;;;;;;;;;24.90;99.90;;;;;;8417000;28;19946;-67
2021/06/22 10:47:44;;;;;;;;;;;24.90;99.90;;;;;;8414402;28;19959;-67
2021/06/22 10:51:46;;;;;;;;;;;24.50;99.90;;;;;;8415178;28;19943;-65
2021/06/22 10:55:48;;;;;;;;;;;23.60;99.90;;;;;;8445509;28;20357;-64
2021/06/22 10:59:58;;;;;;;;;;;23.90;99.90;;;;;;8427249;28;19958;-65
2021/06/22 11:04:05;;;;;;;;;;;25.40;99.90;;;;;;8428849;28;19919;-65
2021/06/22 11:08:08;;;;;;;;;;;27.60;99.90;;;;;;8436972;28;20016;-65
2021/06/22 11:12:17;;;;;;;;;;;28.90;99.90;;;;;;8449075;28;19912;-67
2021/06/22 11:16:18;;;;;;;;;;;30.00;99.90;;;;;;8410835;28;20003;-67
2021/06/22 11:20:18;;;;;;;;;;;30.60;99.90;;;;;;8416866;28;19916;-67
2021/06/22 11:24:20;;;;;;;;;;;30.50;99.90;;;;;;8397962;28;19951;-67
2021/06/22 11:28:22;;;;;;;;;;;29.90;99.90;;;;;;8405794;28;19943;-67
2021/06/22 11:32:32;;;;;;;;;;;29.30;99.90;;;;;;8409560;28;20395;-67
2021/06/22 11:36:33;;;;;;;;;;;28.90;99.90;;;;;;8409296;28;20350;-66
2021/06/22 11:40:33;;;;;;;;;;;28.70;99.90;;;;;;8410206;28;19916;-66
2021/06/22 11:44:39;;;;;;;;;;;27.20;99.90;;;;;;8433148;28;19920;-67
2021/06/22 11:49:00;;;;;;;;;;;26.70;99.90;;;;;;8453009;28;20373;-66
2021/06/22 11:53:02;;;;;;;;;;;27.10;99.90;;;;;;8418232;28;19909;-67
2021/06/22 11:57:03;;;;;;;;;;;27.50;99.90;;;;;;8393884;28;20367;-67
2021/06/22 12:01:04;;;;;;;;;;;27.40;99.90;;;;;;8393922;28;19962;-65
2021/06/22 12:05:08;;;;;;;;;;;26.70;99.90;;;;;;8421753;28;19916;-66
2021/06/22 12:09:19;;;;;;;;;;;26.10;99.90;;;;;;8426968;28;19912;-66
2021/06/22 12:13:34;;;;;;;;;;;25.60;99.90;;;;;;8425039;28;21907;-65
2021/06/22 12:17:34;;;;;;;;;;;24.50;99.90;;;;;;8426699;28;19970;-66
2021/06/22 12:21:39;;;;;;;;;;;22.70;99.90;;;;;;8426452;28;19908;-67
2021/06/22 12:25:39;;;;;;;;;;;20.90;99.90;;;;;;8417793;28;19957;-66
2021/06/22 12:29:40;;;;;;;;;;;18.70;99.90;;;;;;8423294;28;20442;-67
2021/06/22 12:33:43;;;;;;;;;;;18.30;99.90;;;;;;8425360;28;19908;-68
2021/06/22 12:37:43;;;;;;;;;;;18.20;99.90;;;;;;8426034;28;20337;-68
2021/06/22 12:41:44;;;;;;;;;;;18.20;99.90;;;;;;8427348;28;19954;-67
2021/06/22 12:45:46;;;;;;;;;;;18.20;99.90;;;;;;8460164;28;19956;-67
2021/06/22 12:49:47;;;;;;;;;;;18.70;99.90;;;;;;8441863;28;20424;-69
2021/06/22 12:53:50;;;;;;;;;;;21.00;99.90;;;;;;8434940;28;19951;-68
2021/06/22 12:57:51;;;;;;;;;;;24.80;99.90;;;;;;8438160;28;20005;-69
2021/06/22 13:01:53;;;;;;;;;;;27.70;99.90;;;;;;8433417;28;19939;-68
2021/06/22 13:05:54;;;;;;;;;;;28.30;99.90;;;;;;8420365;28;19938;-70
2021/06/22 13:09:55;;;;;;;;;;;28.70;99.90;;;;;;8450481;28;20058;-68
2021/06/22 13:14:25;;;;;;;;;;;27.50;99.90;;;;;;8460101;27;19958;-69
2021/06/22 13:18:26;;;;;;;;;;;27.90;99.90;;;;;;8428206;28;19945;-69
2021/06/22 13:22:30;;;;;;;;;;;29.10;99.90;;;;;;8436690;28;19916;-67
2021/06/22 13:26:32;;;;;;;;;;;29.70;99.90;;;;;;8441597;28;20054;-67
2021/06/22 13:30:33;;;;;;;;;;;28.20;99.90;;;;;;8437417;28;19907;-67
2021/06/22 13:34:33;;;;;;;;;;;26.50;99.90;;;;;;8440957;28;20235;-67
2021/06/22 13:38:35;;;;;;;;;;;30.70;99.90;;;;;;8440906;28;19909;-67
2021/06/22 13:42:36;;;;;;;;;;;32.60;99.90;;;;;;8435711;28;19924;-66
2021/06/22 13:46:37;;;;;;;;;;;33.50;98.70;;;;;;8431434;28;20007;-67
2021/06/22 13:50:38;;;;;;;;;;;33.60;92.70;;;;;;8453902;28;20357;-67
2021/06/22 13:54:55;;;;;;;;;;;34.80;92.90;;;;;;8418097;28;20374;-68
2021/06/22 13:58:55;;;;;;;;;;;37.20;87.50;;;;;;8420580;28;20119;-67
2021/06/22 14:02:56;;;;;;;;;;;35.90;72.90;;;;;;8424658;28;19915;-67
2021/06/22 14:06:59;;;;;;;;;;;30.70;90.50;;;;;;8445862;28;20127;-66
2021/06/22 14:11:00;;;;;;;;;;;26.70;99.90;;;;;;8457902;28;19908;-67
2021/06/22 14:15:00;;;;;;;;;;;25.40;99.90;;;;;;8459065;28;19950;-65
2021/06/22 14:19:04;;;;;;;;;;;24.60;99.90;;;;;;8464127;28;19908;-67
2021/06/22 14:23:05;;;;;;;;;;;25.20;99.90;;;;;;8443215;28;19955;-67
2021/06/22 14:27:05;;;;;;;;;;;25.60;99.90;;;;;;8397184;28;19956;-66
2021/06/22 14:31:06;;;;;;;;;;;25.30;99.90;;;;;;8415001;28;19951;-66
2021/06/22 14:35:09;;;;;;;;;;;24.50;99.90;;;;;;8443810;28;19933;-66
2021/06/22 14:39:09;;;;;;;;;;;23.80;99.90;;;;;;8442535;28;19916;-66
2021/06/22 14:43:10;;;;;;;;;;;23.50;99.90;;;;;;8450572;28;20330;-66
2021/06/22 14:47:10;;;;;;;;;;;24.00;99.90;;;;;;8446388;28;20610;-66
2021/06/22 14:51:11;;;;;;;;;;;24.60;99.90;;;;;;8437519;28;19912;-66
2021/06/22 14:55:29;;;;;;;;;;;26.70;99.90;;;;;;8432779;28;19946;-67
2021/06/22 14:59:29;;;;;;;;;;;27.00;99.90;;;;;;8448406;28;20344;-66
2021/06/22 15:03:30;;;;;;;;;;;28.90;99.90;;;;;;8445055;28;20003;-67
2021/06/22 15:07:30;;;;;;;;;;;29.60;99.90;;;;;;8415963;28;20478;-68
2021/06/22 15:11:32;;;;;;;;;;;30.30;99.90;;;;;;8437969;28;19911;-66
2021/06/22 15:15:33;;;;;;;;;;;30.20;99.90;;;;;;8446267;28;20004;-67
2021/06/22 15:19:33;;;;;;;;;;;30.10;99.90;;;;;;8461385;28;19946;-67
2021/06/22 15:23:34;;;;;;;;;;;31.50;99.90;;;;;;8449582;28;20377;-67
2021/06/22 15:27:34;;;;;;;;;;;28.90;99.90;;;;;;8428303;28;20298;-66
2021/06/22 15:31:35;;;;;;;;;;;26.30;99.90;;;;;;8438507;28;20293;-66
2021/06/22 15:35:35;;;;;;;;;;;25.00;99.90;;;;;;8455405;28;19915;-67
2021/06/22 15:39:36;;;;;;;;;;;25.00;99.90;;;;;;8439880;28;19955;-65
2021/06/22 15:43:36;;;;;;;;;;;24.70;99.90;;;;;;8403880;28;20061;-66
2021/06/22 15:47:37;;;;;;;;;;;25.60;99.90;;;;;;8403093;28;19981;-66
2021/06/22 15:51:37;;;;;;;;;;;30.80;99.90;;;;;;8418371;28;20037;-67
2021/06/22 15:55:39;;;;;;;;;;;33.70;94.40;;;;;;8403535;28;19924;-66
2021/06/22 15:59:40;;;;;;;;;;;32.00;94.60;;;;;;8406752;28;19967;-66
2021/06/22 16:03:40;;;;;;;;;;;30.50;96.60;;;;;;8416523;28;19953;-67
2021/06/22 16:07:44;;;;;;;;;;;31.30;95.60;;;;;;8429762;22;19924;-67
2021/06/22 16:11:44;;;;;;;;;;;27.90;99.90;;;;;;8425717;28;20403;-67
2021/06/22 16:15:45;;;;;;;;;;;26.40;99.90;;;;;;8409470;28;19912;-67
2021/06/22 16:19:45;;;;;;;;;;;28.20;99.90;;;;;;8444683;28;20350;-67
2021/06/22 16:23:46;;;;;;;;;;;29.40;99.90;;;;;;8433440;28;20053;-66
2021/06/22 16:27:46;;;;;;;;;;;29.20;99.90;;;;;;8453528;28;19912;-67
2021/06/22 16:31:47;;;;;;;;;;;30.80;98.60;;;;;;8451112;28;19923;-68
2021/06/22 16:35:47;;;;;;;;;;;30.50;96.00;;;;;;8420704;28;19931;-69
2021/06/22 16:39:48;;;;;;;;;;;32.60;92.40;;;;;;8404850;28;21256;-69
2021/06/22 16:43:48;;;;;;;;;;;35.00;83.10;;;;;;8390162;28;19924;-70
2021/06/22 16:47:49;;;;;;;;;;;36.30;76.80;;;;;;8389529;28;19920;-71
2021/06/22 16:51:51;;;;;;;;;;;36.10;68.50;;;;;;8387877;28;19919;-68
2021/06/22 16:55:51;;;;;;;;;;;33.80;79.40;;;;;;8382553;28;19957;-69
2021/06/22 16:59:52;;;;;;;;;;;34.20;76.70;;;;;;8388960;28;19942;-69
2021/06/22 17:03:53;;;;;;;;;;;35.50;71.40;;;;;;8395931;28;19970;-69
2021/06/22 17:07:54;;;;;;;;;;;34.20;76.20;;;;;;8393155;28;19916;-68
2021/06/22 17:11:54;;;;;;;;;;;34.60;72.50;;;;;;8419521;28;19984;-69
2021/06/22 17:15:55;;;;;;;;;;;34.80;74.70;;;;;;8422879;28;20000;-68
2021/06/22 17:19:56;;;;;;;;;;;35.70;69.20;;;;;;8422217;28;19950;-69
2021/06/22 17:23:56;;;;;;;;;;;36.70;67.60;;;;;;8420602;28;19962;-69
2021/06/22 17:27:56;;;;;;;;;;;36.00;64.60;;;;;;8418807;28;19922;-69
2021/06/22 17:31:57;;;;;;;;;;;31.30;78.40;;;;;;8411874;28;19950;-68
2021/06/22 17:35:57;;;;;;;;;;;29.30;89.40;;;;;;8411609;28;20028;-68
2021/06/22 17:39:58;;;;;;;;;;;28.20;91.90;;;;;;8431197;28;19912;-68
2021/06/22 17:43:58;;;;;;;;;;;27.70;94.70;;;;;;8419927;28;19916;-68
2021/06/22 17:48:00;;;;;;;;;;;27.80;96.10;;;;;;8433300;28;19946;-69
2021/06/22 17:52:00;;;;;;;;;;;27.30;96.90;;;;;;8428755;28;19919;-68
2021/06/22 17:56:01;;;;;;;;;;;26.60;98.40;;;;;;8397284;28;20320;-68
2021/06/22 18:00:03;;;;;;;;;;;25.70;99.90;;;;;;8398142;28;20378;-68
2021/06/22 18:04:03;;;;;;;;;;;25.30;99.90;;;;;;8421876;28;19915;-67
2021/06/22 18:08:04;;;;;;;;;;;24.30;99.90;;;;;;8455371;28;19938;-68
2021/06/22 18:12:04;;;;;;;;;;;23.30;99.90;;;;;;8439653;28;19912;-68
2021/06/22 18:16:05;;;;;;;;;;;22.50;99.90;;;;;;8444334;28;19938;-68
2021/06/22 18:20:07;;;;;;;;;;;22.30;99.90;;;;;;8446247;28;19925;-67
2021/06/22 18:24:07;;;;;;;;;;;22.00;99.90;;;;;;8443265;28;19977;-68
2021/06/22 18:28:08;;;;;;;;;;;21.40;99.90;;;;;;8446243;28;19908;-67
2021/06/22 18:32:09;;;;;;;;;;;21.00;99.90;;;;;;8433502;28;19912;-67
2021/06/22 18:36:09;;;;;;;;;;;20.80;99.90;;;;;;8439375;28;19938;-68
2021/06/22 18:40:14;;;;;;;;;;;20.90;99.90;;;;;;8434133;28;19916;-68
2021/06/22 18:44:14;;;;;;;;;;;20.80;99.90;;;;;;8462077;28;19946;-67
2021/06/22 18:48:15;;;;;;;;;;;20.80;99.90;;;;;;8430473;28;20393;-68
2021/06/22 18:52:16;;;;;;;;;;;20.80;99.90;;;;;;8435506;28;19949;-67
2021/06/22 18:56:16;;;;;;;;;;;20.50;99.90;;;;;;8444943;28;19953;-68
2021/06/22 19:00:18;;;;;;;;;;;20.10;99.90;;;;;;8439902;28;20034;-67
2021/06/22 19:04:18;;;;;;;;;;;20.00;99.90;;;;;;8435593;28;19987;-68
2021/06/22 19:08:19;;;;;;;;;;;19.90;99.90;;;;;;8426470;28;19931;-67
2021/06/22 19:12:19;;;;;;;;;;;19.70;99.90;;;;;;8433426;28;19969;-68
2021/06/22 19:16:20;;;;;;;;;;;19.50;99.90;;;;;;8438543;28;19964;-68
2021/06/22 19:20:21;;;;;;;;;;;19.40;99.90;;;;;;8439254;28;19912;-68
2021/06/22 19:24:23;;;;;;;;;;;19.30;99.90;;;;;;8443506;28;19916;-67
2021/06/22 19:28:23;;;;;;;;;;;19.60;99.90;;;;;;8438043;28;20397;-67
2021/06/22 19:32:24;;;;;;;;;;;19.50;99.90;;;;;;8445083;28;19912;-70
2021/06/22 19:36:24;;;;;;;;;;;19.30;99.90;;;;;;8450543;28;19946;-70
2021/06/22 19:40:25;;;;;;;;;;;19.30;99.90;;;;;;8438572;28;19926;-70
2021/06/22 19:44:26;;;;;;;;;;;19.40;99.90;;;;;;8447015;28;20401;-69
2021/06/22 19:48:27;;;;;;;;;;;19.40;99.90;;;;;;8433107;28;19911;-70
2021/06/22 19:52:27;;;;;;;;;;;19.40;99.90;;;;;;8437016;28;19923;-69
2021/06/22 19:56:28;;;;;;;;;;;19.40;99.90;;;;;;8441041;28;19946;-69
2021/06/22 20:00:28;;;;;;;;;;;19.20;99.90;;;;;;8428974;28;19935;-65
2021/06/22 20:04:29;;;;;;;;;;;19.00;99.90;;;;;;8442444;28;19969;-64
2021/06/22 20:08:29;;;;;;;;;;;19.10;99.90;;;;;;8440122;28;19923;-64
2021/06/22 20:12:30;;;;;;;;;;;19.00;99.90;;;;;;8440769;28;20381;-64
2021/06/22 20:16:30;;;;;;;;;;;18.90;99.90;;;;;;8445752;28;19911;-64
2021/06/22 20:20:31;;;;;;;;;;;18.80;99.90;;;;;;8448803;27;19927;-64
2021/06/22 20:24:31;;;;;;;;;;;18.80;99.90;;;;;;8435744;28;19968;-64
2021/06/22 20:28:32;;;;;;;;;;;18.80;99.90;;;;;;8439446;28;19912;-65
2021/06/22 20:32:33;;;;;;;;;;;19.20;99.90;;;;;;8439438;28;20037;-64
2021/06/22 20:36:33;;;;;;;;;;;19.30;99.90;;;;;;8439744;28;19918;-64
2021/06/22 20:40:34;;;;;;;;;;;19.00;99.90;;;;;;8436418;28;19938;-65
2021/06/22 20:44:34;;;;;;;;;;;18.90;99.90;;;;;;8432143;28;19923;-64
2021/06/22 20:48:34;;;;;;;;;;;18.90;99.90;;;;;;8437573;28;19919;-66
2021/06/22 20:52:35;;;;;;;;;;;18.90;99.90;;;;;;8435997;28;19955;-65
2021/06/22 20:56:36;;;;;;;;;;;18.90;99.90;;;;;;8420274;28;20327;-66
2021/06/22 21:00:36;;;;;;;;;;;18.90;99.90;;;;;;8424459;28;19934;-66
2021/06/22 21:04:37;;;;;;;;;;;18.80;99.90;;;;;;8425958;28;20439;-66
2021/06/22 21:08:37;;;;;;;;;;;18.90;99.90;;;;;;8410619;28;19920;-66
2021/06/22 21:12:37;;;;;;;;;;;19.00;99.90;;;;;;8391001;28;19920;-66
2021/06/22 21:16:38;;;;;;;;;;;18.90;99.90;;;;;;8391721;28;19908;-66
2021/06/22 21:20:39;;;;;;;;;;;18.50;99.90;;;;;;8392319;28;20374;-66
2021/06/22 21:24:40;;;;;;;;;;;18.30;99.90;;;;;;8391512;28;19919;-66
2021/06/22 21:28:40;;;;;;;;;;;18.40;99.90;;;;;;8423824;28;19973;-66
2021/06/22 21:32:41;;;;;;;;;;;18.70;99.90;;;;;;8425262;28;20396;-66
2021/06/22 21:36:41;;;;;;;;;;;18.70;99.90;;;;;;8424911;28;19978;-66
2021/06/22 21:40:42;;;;;;;;;;;18.40;99.90;;;;;;8425041;28;20536;-66
2021/06/22 21:44:42;;;;;;;;;;;18.60;99.90;;;;;;8425443;28;19919;-66
2021/06/22 21:48:43;;;;;;;;;;;18.50;99.90;;;;;;8424870;28;20385;-67
2021/06/22 21:52:44;;;;;;;;;;;18.50;99.90;;;;;;8424099;28;19949;-66
2021/06/22 21:56:44;;;;;;;;;;;18.50;99.90;;;;;;8423185;28;19954;-65
2021/06/22 22:00:44;;;;;;;;;;;18.50;99.90;;;;;;8418805;28;20488;-65
2021/06/22 22:04:46;;;;;;;;;;;18.30;99.90;;;;;;8433280;28;20402;-66
2021/06/22 22:08:46;;;;;;;;;;;18.20;99.90;;;;;;8183305;22;1963688;-65
2021/06/22 22:12:47;;;;;;;;;;;18.20;99.90;;;;;;8128612;29;19980;-65
2021/06/22 22:16:48;;;;;;;;;;;17.90;99.90;;;;;;8128205;29;20305;-63
2021/06/22 22:20:48;;;;;;;;;;;17.70;99.90;;;;;;8128405;29;19985;-63
2021/06/22 22:24:49;;;;;;;;;;;17.70;99.90;;;;;;8128432;29;19956;-63
2021/06/22 22:28:49;;;;;;;;;;;17.60;99.90;;;;;;8127965;29;19919;-63
2021/06/22 22:32:50;;;;;;;;;;;17.60;99.90;;;;;;8128080;29;19911;-63
2021/06/22 22:36:50;;;;;;;;;;;17.80;99.90;;;;;;8129582;29;20018;-63
2021/06/22 22:40:51;;;;;;;;;;;17.80;99.90;;;;;;8132991;29;20006;-63
2021/06/22 22:44:51;;;;;;;;;;;18.00;99.90;;;;;;8133323;29;20384;-63
2021/06/22 22:48:52;;;;;;;;;;;17.70;99.90;;;;;;8132919;29;19953;-63
2021/06/22 22:52:52;;;;;;;;;;;17.80;99.90;;;;;;8132981;29;19925;-62
2021/06/22 22:56:53;;;;;;;;;;;17.80;99.90;;;;;;8132884;29;19992;-63
2021/06/22 23:00:53;;;;;;;;;;;17.80;99.90;;;;;;8132237;29;19916;-63
2021/06/22 23:04:53;;;;;;;;;;;17.70;99.90;;;;;;8132111;29;19950;-62
2021/06/22 23:08:54;;;;;;;;;;;17.60;99.90;;;;;;8131748;29;19959;-63
2021/06/22 23:12:54;;;;;;;;;;;17.70;99.90;;;;;;8132042;29;19954;-63
2021/06/22 23:16:55;;;;;;;;;;;17.70;99.90;;;;;;8132063;29;19973;-62
2021/06/22 23:20:55;;;;;;;;;;;17.60;99.90;;;;;;8131883;29;20022;-62